Time;durP1;ratioP1;P1;durP2;ratioP2;P2;SDS_P1;SDS_P2;PMS_P1;PMS_P2;Temp;Humidity;BMP_temperature;BMP_pressure;BME280_temperature;BME280_humidity;BME280_pressure;Samples;Min_cycle;Max_cycle;Signal;HPM_P1;HPM_P2
2021/07/10 00:00:12;;;;;;;8.03;6.17;;;;;;;;;;5069322;28;20186;-82
2021/07/10 00:02:38;;;;;;;6.80;5.80;;;;;;;;;;5069590;28;20176;-82
2021/07/10 00:05:05;;;;;;;6.60;6.00;;;;;;;;;;5070574;28;20190;-82
2021/07/10 00:07:32;;;;;;;6.50;5.87;;;;;;;;;;5066983;28;20244;-82
2021/07/10 00:09:58;;;;;;;5.43;5.03;;;;;;;;;;5072059;28;20663;-82
2021/07/10 00:12:24;;;;;;;6.30;5.70;;;;;;;;;;5069997;28;20185;-82
2021/07/10 00:14:50;;;;;;;6.37;5.77;;;;;;;;;;5061570;28;20666;-81
2021/07/10 00:17:17;;;;;;;6.03;5.50;;;;;;;;;;5069603;28;20188;-82
2021/07/10 00:19:43;;;;;;;5.50;5.10;;;;;;;;;;5068749;28;20190;-82
2021/07/10 00:22:09;;;;;;;5.30;4.90;;;;;;;;;;5061084;28;20169;-82
2021/07/10 00:24:36;;;;;;;6.67;5.30;;;;;;;;;;5068436;28;20252;-82
2021/07/10 00:27:02;;;;;;;6.10;5.40;;;;;;;;;;5067445;28;20312;-83
2021/07/10 00:29:28;;;;;;;6.10;5.60;;;;;;;;;;5099272;28;20194;-83
2021/07/10 00:31:54;;;;;;;5.50;5.10;;;;;;;;;;5069097;28;20178;-82
2021/07/10 00:34:20;;;;;;;6.50;5.47;;;;;;;;;;5095038;28;20232;-83
2021/07/10 00:36:46;;;;;;;5.30;4.80;;;;;;;;;;5065055;28;20508;-82
2021/07/10 00:39:12;;;;;;;6.53;5.83;;;;;;;;;;5065944;28;20189;-83
2021/07/10 00:41:38;;;;;;;7.13;5.73;;;;;;;;;;5106768;27;20174;-82
2021/07/10 00:44:04;;;;;;;6.20;5.23;;;;;;;;;;5067954;28;20180;-82
2021/07/10 00:46:30;;;;;;;6.07;5.57;;;;;;;;;;5084712;28;20205;-83
2021/07/10 00:48:56;;;;;;;5.87;5.37;;;;;;;;;;5068850;28;20545;-82
2021/07/10 00:51:22;;;;;;;6.93;5.80;;;;;;;;;;5100481;28;20639;-82
2021/07/10 00:53:49;;;;;;;5.90;5.40;;;;;;;;;;5070475;28;20262;-82
2021/07/10 00:56:15;;;;;;;6.03;5.53;;;;;;;;;;5058517;28;20200;-82
2021/07/10 00:58:42;;;;;;;6.10;5.60;;;;;;;;;;5064614;28;20209;-82
2021/07/10 01:01:08;;;;;;;5.70;5.20;;;;;;;;;;5101177;28;20196;-82
2021/07/10 01:03:35;;;;;;;6.33;5.73;;;;;;;;;;5095343;28;20168;-83
2021/07/10 01:06:02;;;;;;;6.60;6.00;;;;;;;;;;5088705;28;20181;-82
2021/07/10 01:08:30;;;;;;;6.40;5.80;;;;;;;;;;5067619;28;20193;-82
2021/07/10 01:10:57;;;;;;;6.00;5.50;;;;;;;;;;5068919;28;20181;-83
2021/07/10 01:13:23;;;;;;;5.47;5.07;;;;;;;;;;5061971;28;20759;-82
2021/07/10 01:15:49;;;;;;;6.10;5.07;;;;;;;;;;5069536;28;20197;-82
2021/07/10 01:18:15;;;;;;;5.70;5.20;;;;;;;;;;5068214;28;20658;-82
2021/07/10 01:20:47;;;;;;;5.70;5.20;;;;;;;;;;5065876;28;20577;-82
2021/07/10 01:23:14;;;;;;;5.90;5.40;;;;;;;;;;5069832;28;20177;-82
2021/07/10 01:25:40;;;;;;;6.47;5.87;;;;;;;;;;5065004;28;20173;-81
2021/07/10 01:28:08;;;;;;;5.90;5.40;;;;;;;;;;5060596;28;20181;-82
2021/07/10 01:30:35;;;;;;;6.60;6.10;;;;;;;;;;5062123;28;20230;-81
2021/07/10 01:33:01;;;;;;;5.73;5.23;;;;;;;;;;5067615;28;20690;-81
2021/07/10 01:35:27;;;;;;;6.07;5.57;;;;;;;;;;5068213;28;20281;-81
2021/07/10 01:37:53;;;;;;;6.37;5.70;;;;;;;;;;5067583;28;20180;-82
2021/07/10 01:40:20;;;;;;;6.20;5.70;;;;;;;;;;5067712;28;20169;-82
2021/07/10 01:42:46;;;;;;;6.20;5.33;;;;;;;;;;5067095;28;20709;-82
2021/07/10 01:45:13;;;;;;;6.73;5.60;;;;;;;;;;5065036;28;20188;-81
2021/07/10 01:47:40;;;;;;;5.07;4.67;;;;;;;;;;5067404;28;20324;-82
2021/07/10 01:50:07;;;;;;;6.47;5.97;;;;;;;;;;5069158;28;20744;-82
2021/07/10 01:52:33;;;;;;;6.63;6.03;;;;;;;;;;5079173;28;20207;-82
2021/07/10 01:55:00;;;;;;;6.23;5.73;;;;;;;;;;5069629;28;20228;-81
2021/07/10 01:57:26;;;;;;;5.70;5.20;;;;;;;;;;5066249;28;20180;-81
2021/07/10 01:59:52;;;;;;;6.40;5.80;;;;;;;;;;5068337;28;20169;-81
2021/07/10 02:02:18;;;;;;;6.17;5.67;;;;;;;;;;5068769;28;20172;-81
2021/07/10 02:04:48;;;;;;;6.37;5.87;;;;;;;;;;5065997;28;20176;-81
2021/07/10 02:07:14;;;;;;;6.50;5.93;;;;;;;;;;5064994;28;20576;-81
2021/07/10 02:09:40;;;;;;;6.63;6.03;;;;;;;;;;5066679;28;20247;-81
2021/07/10 02:12:06;;;;;;;6.63;6.03;;;;;;;;;;5068929;28;20573;-82
2021/07/10 02:14:33;;;;;;;6.00;5.50;;;;;;;;;;5061195;28;20204;-81
2021/07/10 02:16:59;;;;;;;8.00;6.83;;;;;;;;;;5066043;28;20184;-81
2021/07/10 02:19:25;;;;;;;6.10;5.60;;;;;;;;;;5067361;28;20181;-82
2021/07/10 02:21:51;;;;;;;6.30;5.70;;;;;;;;;;5065992;28;20178;-82
2021/07/10 02:24:17;;;;;;;6.40;5.90;;;;;;;;;;5065222;28;20634;-82
2021/07/10 02:26:43;;;;;;;6.67;6.07;;;;;;;;;;5057877;28;20185;-82
2021/07/10 02:29:09;;;;;;;6.90;6.23;;;;;;;;;;5059207;28;20233;-81
2021/07/10 02:31:36;;;;;;;6.70;5.77;;;;;;;;;;5060300;28;20177;-81
2021/07/10 02:34:02;;;;;;;6.40;5.90;;;;;;;;;;5065664;28;20208;-81
2021/07/10 02:36:28;;;;;;;6.37;5.87;;;;;;;;;;5068572;28;20531;-82
2021/07/10 02:38:54;;;;;;;5.63;5.17;;;;;;;;;;5068817;28;20644;-81
2021/07/10 02:41:20;;;;;;;6.33;5.83;;;;;;;;;;5065579;28;20238;-81
2021/07/10 02:43:46;;;;;;;7.07;6.47;;;;;;;;;;5065293;28;20644;-81
2021/07/10 02:46:12;;;;;;;6.00;5.40;;;;;;;;;;5068653;28;20647;-82
2021/07/10 02:48:38;;;;;;;7.37;5.43;;;;;;;;;;5066723;28;20598;-81
2021/07/10 02:51:04;;;;;;;5.80;5.30;;;;;;;;;;5059141;28;20184;-82
2021/07/10 02:53:31;;;;;;;5.47;5.03;;;;;;;;;;5092125;28;20232;-82
2021/07/10 02:55:57;;;;;;;6.50;5.90;;;;;;;;;;5100407;28;20211;-81
2021/07/10 02:58:23;;;;;;;6.30;5.80;;;;;;;;;;5057514;28;20556;-82
2021/07/10 03:00:49;;;;;;;6.23;5.00;;;;;;;;;;5067012;28;20207;-82
2021/07/10 03:03:15;;;;;;;6.00;5.50;;;;;;;;;;5065816;28;20182;-81
2021/07/10 03:05:41;;;;;;;6.50;5.90;;;;;;;;;;5067237;28;20185;-81
2021/07/10 03:08:07;;;;;;;5.60;5.20;;;;;;;;;;5064267;28;20288;-81
2021/07/10 03:10:34;;;;;;;5.87;5.40;;;;;;;;;;5066547;28;20310;-81
2021/07/10 03:13:00;;;;;;;6.90;6.30;;;;;;;;;;5099557;28;20779;-81
2021/07/10 03:15:27;;;;;;;6.53;5.93;;;;;;;;;;5069855;28;20204;-81
2021/07/10 03:17:54;;;;;;;6.50;5.83;;;;;;;;;;5064147;28;20215;-81
2021/07/10 03:20:23;;;;;;;5.83;5.33;;;;;;;;;;5070560;28;20715;-82
2021/07/10 03:22:49;;;;;;;6.85;6.28;;;;;;;;;;5066382;28;20415;-82
2021/07/10 03:25:16;;;;;;;5.80;5.30;;;;;;;;;;5100898;28;20185;-81
2021/07/10 03:27:42;;;;;;;6.17;5.57;;;;;;;;;;5063249;28;20183;-82
2021/07/10 03:30:09;;;;;;;5.87;5.37;;;;;;;;;;5070550;28;21415;-82
2021/07/10 03:32:35;;;;;;;6.07;5.57;;;;;;;;;;5064997;28;20229;-82
2021/07/10 03:35:01;;;;;;;6.70;6.10;;;;;;;;;;5071257;28;20196;-82
2021/07/10 03:37:27;;;;;;;6.13;5.63;;;;;;;;;;5064276;28;20182;-81
2021/07/10 03:39:53;;;;;;;6.43;5.83;;;;;;;;;;5102255;28;20193;-82
2021/07/10 03:42:19;;;;;;;5.93;5.43;;;;;;;;;;5065340;28;20212;-81
2021/07/10 03:44:46;;;;;;;6.30;5.67;;;;;;;;;;5058632;28;20224;-82
2021/07/10 03:47:12;;;;;;;5.97;5.40;;;;;;;;;;5070852;28;20564;-82
2021/07/10 03:49:38;;;;;;;6.73;6.23;;;;;;;;;;5067436;28;20177;-81
2021/07/10 03:52:04;;;;;;;7.10;6.40;;;;;;;;;;5068800;28;20192;-81
2021/07/10 03:54:30;;;;;;;6.60;6.10;;;;;;;;;;5068019;28;20231;-81
2021/07/10 03:56:56;;;;;;;6.90;6.30;;;;;;;;;;5068354;28;20203;-81
2021/07/10 03:59:22;;;;;;;6.97;6.27;;;;;;;;;;5070975;28;20344;-81
2021/07/10 04:01:48;;;;;;;6.97;6.33;;;;;;;;;;5071353;28;20168;-81
2021/07/10 04:04:14;;;;;;;7.07;6.47;;;;;;;;;;5067652;28;20185;-82
2021/07/10 04:06:40;;;;;;;6.77;6.17;;;;;;;;;;5097937;28;20200;-82
2021/07/10 04:09:06;;;;;;;7.87;6.63;;;;;;;;;;5070814;28;20197;-82
2021/07/10 04:11:33;;;;;;;7.30;6.60;;;;;;;;;;5104010;28;20246;-82
2021/07/10 04:13:59;;;;;;;7.60;6.20;;;;;;;;;;5100952;28;20204;-81
2021/07/10 04:16:25;;;;;;;5.93;5.43;;;;;;;;;;5054029;28;20177;-81
2021/07/10 04:18:51;;;;;;;7.17;6.57;;;;;;;;;;5062517;28;20643;-81
2021/07/10 04:21:17;;;;;;;6.73;6.03;;;;;;;;;;5061241;28;20691;-81
2021/07/10 04:23:43;;;;;;;6.40;5.80;;;;;;;;;;5067205;28;20183;-81
2021/07/10 04:26:09;;;;;;;11.20;7.50;;;;;;;;;;5067972;28;20271;-81
2021/07/10 04:28:36;;;;;;;6.83;6.13;;;;;;;;;;5064210;28;20238;-81
2021/07/10 04:31:02;;;;;;;7.20;6.40;;;;;;;;;;5101646;28;20242;-81
2021/07/10 04:33:28;;;;;;;7.27;6.57;;;;;;;;;;5071842;28;20608;-81
2021/07/10 04:35:54;;;;;;;7.07;6.47;;;;;;;;;;5064164;28;20651;-81
2021/07/10 04:38:20;;;;;;;7.70;7.00;;;;;;;;;;5060077;28;20263;-82
2021/07/10 04:40:47;;;;;;;6.70;6.10;;;;;;;;;;5065087;28;20291;-82
2021/07/10 04:43:13;;;;;;;7.73;6.37;;;;;;;;;;5070890;28;20584;-82
2021/07/10 04:45:39;;;;;;;7.27;6.63;;;;;;;;;;5100586;28;20654;-82
2021/07/10 04:48:06;;;;;;;6.43;5.80;;;;;;;;;;5064280;28;20272;-81
2021/07/10 04:50:32;;;;;;;7.37;5.83;;;;;;;;;;5068354;28;20585;-81
2021/07/10 04:52:58;;;;;;;7.10;6.40;;;;;;;;;;5069647;28;20291;-82
2021/07/10 04:55:24;;;;;;;8.80;6.60;;;;;;;;;;5069679;28;20235;-81
2021/07/10 04:57:50;;;;;;;6.73;6.13;;;;;;;;;;5069161;28;20215;-81
2021/07/10 05:00:17;;;;;;;6.50;5.90;;;;;;;;;;5070239;28;20176;-80
2021/07/10 05:02:43;;;;;;;6.80;6.17;;;;;;;;;;5068406;28;20273;-81
2021/07/10 05:05:10;;;;;;;6.80;6.20;;;;;;;;;;5067917;28;20246;-81
2021/07/10 05:07:36;;;;;;;7.00;6.40;;;;;;;;;;5069200;28;20271;-81
2021/07/10 05:10:02;;;;;;;6.83;6.20;;;;;;;;;;5072327;28;20641;-81
2021/07/10 05:12:28;;;;;;;8.50;6.60;;;;;;;;;;5073900;28;20204;-81
2021/07/10 05:14:54;;;;;;;7.20;6.40;;;;;;;;;;5070223;28;20231;-82
2021/07/10 05:17:20;;;;;;;7.53;6.50;;;;;;;;;;5068938;28;20654;-82
2021/07/10 05:19:47;;;;;;;7.30;6.60;;;;;;;;;;5067808;28;20169;-82
2021/07/10 05:22:13;;;;;;;7.67;6.87;;;;;;;;;;5066692;28;20181;-82
2021/07/10 05:24:39;;;;;;;6.97;6.30;;;;;;;;;;5059768;28;20215;-81
2021/07/10 05:27:06;;;;;;;7.23;6.53;;;;;;;;;;5067463;28;20834;-81
2021/07/10 05:29:33;;;;;;;7.17;6.47;;;;;;;;;;5069025;28;20355;-81
2021/07/10 05:31:59;;;;;;;10.87;5.83;;;;;;;;;;5059983;28;20702;-81
2021/07/10 05:34:26;;;;;;;6.70;6.00;;;;;;;;;;5068805;28;20286;-81
2021/07/10 05:36:52;;;;;;;6.73;6.13;;;;;;;;;;5067359;28;20645;-83
2021/07/10 05:39:18;;;;;;;6.17;5.57;;;;;;;;;;5069498;28;20185;-83
2021/07/10 05:41:44;;;;;;;7.47;6.00;;;;;;;;;;5074218;28;20599;-83
2021/07/10 05:44:10;;;;;;;6.70;6.10;;;;;;;;;;5102521;28;20187;-83
2021/07/10 05:46:36;;;;;;;6.23;5.67;;;;;;;;;;5067615;28;20184;-83
2021/07/10 05:49:02;;;;;;;5.53;5.03;;;;;;;;;;5102073;28;20180;-83
2021/07/10 05:51:28;;;;;;;7.30;6.20;;;;;;;;;;5067358;28;20184;-84
2021/07/10 05:53:54;;;;;;;5.73;5.23;;;;;;;;;;5067305;28;20224;-83
2021/07/10 05:56:20;;;;;;;7.07;6.37;;;;;;;;;;5066546;28;20207;-83
2021/07/10 05:58:46;;;;;;;7.30;5.60;;;;;;;;;;5070478;28;20252;-83
2021/07/10 06:01:12;;;;;;;6.33;5.73;;;;;;;;;;5073552;28;20248;-83
2021/07/10 06:03:38;;;;;;;6.67;5.60;;;;;;;;;;5067238;28;20177;-84
2021/07/10 06:06:04;;;;;;;6.80;5.73;;;;;;;;;;5068292;28;20240;-83
2021/07/10 06:08:30;;;;;;;5.37;4.97;;;;;;;;;;5073476;28;20188;-84
2021/07/10 06:10:56;;;;;;;7.15;6.38;;;;;;;;;;5073760;28;20419;-84
2021/07/10 06:13:23;;;;;;;6.83;5.70;;;;;;;;;;5108518;28;20631;-84
2021/07/10 06:15:49;;;;;;;5.57;5.07;;;;;;;;;;5070611;28;20208;-85
2021/07/10 06:18:15;;;;;;;6.17;5.57;;;;;;;;;;5073266;28;20181;-83
2021/07/10 06:20:41;;;;;;;6.40;5.80;;;;;;;;;;5107755;28;20191;-83
2021/07/10 06:23:08;;;;;;;6.40;5.80;;;;;;;;;;5073067;28;20631;-83
2021/07/10 06:25:35;;;;;;;7.77;6.97;;;;;;;;;;5107197;28;20172;-83
2021/07/10 06:28:01;;;;;;;7.87;7.17;;;;;;;;;;5074117;28;20185;-84
2021/07/10 06:30:27;;;;;;;8.10;7.30;;;;;;;;;;5068094;28;20246;-85
2021/07/10 06:32:53;;;;;;;8.67;7.77;;;;;;;;;;5074089;28;20271;-85
2021/07/10 06:35:19;;;;;;;9.30;8.27;;;;;;;;;;5074992;28;20201;-85
2021/07/10 06:37:45;;;;;;;8.73;7.83;;;;;;;;;;5077031;28;20245;-85
2021/07/10 06:40:13;;;;;;;9.47;8.53;;;;;;;;;;5078885;28;20173;-84
2021/07/10 06:42:39;;;;;;;9.57;8.67;;;;;;;;;;5068262;28;20177;-85
2021/07/10 06:45:11;;;;;;;10.17;7.60;;;;;;;;;;5074919;28;20173;-84
2021/07/10 06:47:37;;;;;;;9.47;8.50;;;;;;;;;;5075285;28;20205;-85
2021/07/10 06:50:05;;;;;;;11.03;9.90;;;;;;;;;;5067897;28;20185;-84
2021/07/10 06:52:31;;;;;;;9.37;8.47;;;;;;;;;;5073174;28;20246;-85
2021/07/10 06:54:57;;;;;;;10.27;9.07;;;;;;;;;;5075337;28;20220;-84
2021/07/10 06:57:23;;;;;;;12.30;9.50;;;;;;;;;;5070736;28;20240;-85
2021/07/10 06:59:49;;;;;;;9.70;8.80;;;;;;;;;;5095107;28;20181;-84
2021/07/10 07:02:15;;;;;;;11.87;9.10;;;;;;;;;;5070594;28;20189;-85
2021/07/10 07:04:41;;;;;;;9.33;8.33;;;;;;;;;;5071334;28;20541;-85
2021/07/10 07:07:08;;;;;;;10.03;8.90;;;;;;;;;;5061397;28;20274;-84
2021/07/10 07:09:34;;;;;;;9.27;8.37;;;;;;;;;;5096617;28;20251;-84
2021/07/10 07:12:00;;;;;;;10.23;9.17;;;;;;;;;;5068159;28;20281;-82
2021/07/10 07:14:26;;;;;;;12.43;8.97;;;;;;;;;;5073491;28;20211;-83
2021/07/10 07:16:55;;;;;;;9.67;8.77;;;;;;;;;;5067542;28;20665;-82
2021/07/10 07:19:21;;;;;;;11.83;8.83;;;;;;;;;;5100304;28;20181;-80
2021/07/10 07:21:47;;;;;;;9.90;8.90;;;;;;;;;;5073013;28;20536;-82
2021/07/10 07:24:13;;;;;;;10.13;8.60;;;;;;;;;;5073807;28;20177;-82
2021/07/10 07:26:39;;;;;;;9.13;8.23;;;;;;;;;;5072808;28;20184;-82
2021/07/10 07:29:05;;;;;;;9.93;8.53;;;;;;;;;;5107035;28;21714;-80
2021/07/10 07:31:32;;;;;;;9.60;8.63;;;;;;;;;;5072242;28;20195;-82
2021/07/10 07:33:58;;;;;;;11.33;10.23;;;;;;;;;;5075953;28;20204;-82
2021/07/10 07:36:24;;;;;;;13.23;11.13;;;;;;;;;;5076500;28;20487;-82
2021/07/10 07:38:50;;;;;;;15.23;11.10;;;;;;;;;;5076679;28;20619;-82
2021/07/10 07:41:18;;;;;;;13.73;10.20;;;;;;;;;;5070157;28;20185;-82
2021/07/10 07:43:44;;;;;;;11.33;10.00;;;;;;;;;;5075009;28;20192;-83
2021/07/10 07:46:12;;;;;;;10.40;9.40;;;;;;;;;;5073218;28;20238;-84
2021/07/10 07:48:38;;;;;;;12.30;10.57;;;;;;;;;;5074739;28;20243;-84
2021/07/10 07:51:04;;;;;;;15.57;10.13;;;;;;;;;;5074430;28;20607;-84
2021/07/10 07:53:30;;;;;;;9.77;8.87;;;;;;;;;;5072602;28;20224;-85
2021/07/10 07:55:56;;;;;;;9.73;8.83;;;;;;;;;;5072883;28;20260;-84
2021/07/10 07:58:22;;;;;;;10.83;9.37;;;;;;;;;;5104807;28;20173;-79
2021/07/10 08:00:48;;;;;;;12.17;9.33;;;;;;;;;;5071203;28;20172;-85
2021/07/10 08:03:14;;;;;;;10.60;9.53;;;;;;;;;;5073240;28;20184;-85
2021/07/10 08:05:40;;;;;;;10.40;9.20;;;;;;;;;;5073084;28;20221;-83
2021/07/10 08:08:07;;;;;;;10.53;8.57;;;;;;;;;;5073187;28;20468;-85
2021/07/10 08:10:33;;;;;;;9.93;8.83;;;;;;;;;;5077470;28;20184;-85
2021/07/10 08:12:59;;;;;;;13.40;8.07;;;;;;;;;;5073859;28;20255;-85
2021/07/10 08:15:25;;;;;;;9.27;8.23;;;;;;;;;;5077169;28;20739;-87
2021/07/10 08:17:52;;;;;;;8.90;8.10;;;;;;;;;;5064393;28;20251;-86
2021/07/10 08:20:18;;;;;;;10.23;7.80;;;;;;;;;;5073637;28;20719;-87
2021/07/10 08:22:44;;;;;;;9.30;7.47;;;;;;;;;;5069458;28;20511;-86
2021/07/10 08:25:11;;;;;;;11.53;8.40;;;;;;;;;;5068752;28;20234;-84
2021/07/10 08:27:37;;;;;;;8.93;7.63;;;;;;;;;;5106544;28;20180;-83
2021/07/10 08:30:04;;;;;;;11.33;6.43;;;;;;;;;;5072474;28;20253;-84
2021/07/10 08:32:30;;;;;;;9.97;7.60;;;;;;;;;;5075015;28;20229;-86
2021/07/10 08:34:56;;;;;;;11.53;7.67;;;;;;;;;;5070757;28;20281;-83
2021/07/10 08:37:23;;;;;;;10.03;7.00;;;;;;;;;;5070467;28;20181;-84
2021/07/10 08:39:49;;;;;;;9.53;7.43;;;;;;;;;;5075718;28;20181;-83
2021/07/10 08:42:15;;;;;;;8.37;6.70;;;;;;;;;;5070152;28;20189;-84
2021/07/10 08:44:41;;;;;;;8.83;6.60;;;;;;;;;;5068984;28;20245;-84
2021/07/10 08:47:14;;;;;;;8.43;6.37;;;;;;;;;;5075535;28;20178;-84
2021/07/10 08:49:41;;;;;;;7.87;6.57;;;;;;;;;;5072928;28;20230;-85
2021/07/10 08:52:07;;;;;;;8.03;5.47;;;;;;;;;;5071667;28;20185;-84
2021/07/10 08:54:36;;;;;;;7.73;6.83;;;;;;;;;;5071143;28;20262;-85
2021/07/10 08:57:02;;;;;;;8.07;6.00;;;;;;;;;;5105183;28;20760;-87
2021/07/10 08:59:28;;;;;;;7.60;5.63;;;;;;;;;;5072060;28;20183;-87
2021/07/10 09:01:54;;;;;;;7.77;6.97;;;;;;;;;;5071079;28;20376;-87
2021/07/10 09:04:21;;;;;;;8.00;7.00;;;;;;;;;;5072369;28;20185;-86
2021/07/10 09:06:47;;;;;;;7.73;6.93;;;;;;;;;;5071556;28;20289;-86
2021/07/10 09:09:13;;;;;;;10.67;6.77;;;;;;;;;;5066580;28;20197;-86
2021/07/10 09:11:39;;;;;;;8.27;6.23;;;;;;;;;;5069491;28;20185;-86
2021/07/10 09:14:05;;;;;;;7.63;6.20;;;;;;;;;;5069816;28;20301;-86
2021/07/10 09:16:31;;;;;;;9.93;6.67;;;;;;;;;;5071679;28;20186;-86
2021/07/10 09:19:02;;;;;;;8.27;7.30;;;;;;;;;;5068212;28;20585;-87
2021/07/10 09:21:34;;;;;;;6.07;5.47;;;;;;;;;;5080980;28;20189;-86
2021/07/10 09:24:00;;;;;;;8.17;5.97;;;;;;;;;;5068896;28;20260;-87
2021/07/10 09:26:27;;;;;;;9.73;6.03;;;;;;;;;;5069333;28;20374;-85
2021/07/10 09:29:16;;;;;;;8.37;6.70;;;;;;;;;;5070447;28;20188;-85
2021/07/10 09:31:44;;;;;;;8.63;6.90;;;;;;;;;;5057635;28;20253;-87
2021/07/10 09:34:21;;;;;;;6.37;5.77;;;;;;;;;;5080741;28;20222;-87
2021/07/10 09:36:53;;;;;;;11.13;6.17;;;;;;;;;;5067810;28;20285;-86
2021/07/10 09:39:19;;;;;;;9.50;6.33;;;;;;;;;;5067529;28;20183;-87
2021/07/10 09:41:46;;;;;;;7.90;6.30;;;;;;;;;;5068070;28;20269;-86
2021/07/10 09:44:13;;;;;;;8.93;6.63;;;;;;;;;;5068272;28;20997;-86
2021/07/10 09:46:40;;;;;;;6.97;5.83;;;;;;;;;;5069072;28;20183;-86
2021/07/10 09:49:21;;;;;;;9.20;6.63;;;;;;;;;;5070124;28;20209;-84
2021/07/10 09:51:47;;;;;;;7.07;6.37;;;;;;;;;;5086501;28;20211;-86
2021/07/10 09:54:13;;;;;;;8.37;6.40;;;;;;;;;;5072925;28;20267;-86
2021/07/10 09:56:58;;;;;;;7.93;6.13;;;;;;;;;;5068988;28;20189;-85
2021/07/10 09:59:24;;;;;;;7.13;6.37;;;;;;;;;;5069924;28;20179;-86
2021/07/10 10:01:51;;;;;;;6.13;5.53;;;;;;;;;;5069493;28;20274;-87
2021/07/10 10:04:22;;;;;;;6.73;6.03;;;;;;;;;;5067249;28;20215;-86
2021/07/10 10:06:48;;;;;;;6.63;5.93;;;;;;;;;;5062320;28;20205;-86
2021/07/10 10:09:24;;;;;;;10.00;6.67;;;;;;;;;;5066282;28;20506;-86
2021/07/10 10:11:59;;;;;;;6.83;6.07;;;;;;;;;;5069382;28;20206;-86
2021/07/10 10:14:27;;;;;;;6.40;5.67;;;;;;;;;;5073538;28;20334;-87
2021/07/10 10:16:53;;;;;;;7.07;6.37;;;;;;;;;;5076438;28;20203;-83
2021/07/10 10:19:23;;;;;;;7.83;6.20;;;;;;;;;;5078741;28;20277;-84
2021/07/10 10:21:51;;;;;;;7.67;6.83;;;;;;;;;;5069942;28;20182;-84
2021/07/10 10:24:17;;;;;;;6.87;6.27;;;;;;;;;;5068507;28;20243;-83
2021/07/10 10:26:44;;;;;;;6.37;5.80;;;;;;;;;;5060151;28;20183;-84
2021/07/10 10:29:11;;;;;;;7.37;5.50;;;;;;;;;;5069649;28;20185;-84
2021/07/10 10:31:39;;;;;;;6.17;5.50;;;;;;;;;;5070575;28;20201;-85
2021/07/10 10:34:06;;;;;;;6.83;5.33;;;;;;;;;;5071425;28;20602;-85
2021/07/10 10:36:34;;;;;;;6.87;5.93;;;;;;;;;;5071366;28;20546;-84
2021/07/10 10:39:00;;;;;;;21.33;13.70;;;;;;;;;;5073120;28;20275;-81
2021/07/10 10:41:27;;;;;;;48.23;33.23;;;;;;;;;;5070136;28;20644;-84
2021/07/10 10:43:55;;;;;;;18.97;11.17;;;;;;;;;;5086454;28;20189;-83
2021/07/10 10:46:25;;;;;;;14.07;9.67;;;;;;;;;;5070208;28;20199;-83
2021/07/10 10:48:52;;;;;;;13.77;11.50;;;;;;;;;;5074969;28;20181;-83
2021/07/10 10:51:25;;;;;;;8.63;6.40;;;;;;;;;;5067828;28;20182;-83
2021/07/10 10:53:52;;;;;;;9.57;6.83;;;;;;;;;;5070377;28;20208;-83
2021/07/10 10:56:37;;;;;;;7.28;6.30;;;;;;;;;;5070350;28;21044;-83
2021/07/10 10:59:29;;;;;;;9.63;6.33;;;;;;;;;;5080409;28;20183;-84
2021/07/10 11:01:56;;;;;;;6.57;5.50;;;;;;;;;;5073571;28;20181;-84
2021/07/10 11:04:45;;;;;;;6.13;5.17;;;;;;;;;;5073873;28;20182;-84
2021/07/10 11:07:27;;;;;;;6.30;5.00;;;;;;;;;;5052753;28;20705;-86
2021/07/10 11:10:02;;;;;;;7.77;5.83;;;;;;;;;;5069887;28;20192;-84
2021/07/10 11:12:47;;;;;;;9.17;5.67;;;;;;;;;;5076109;28;20180;-85
2021/07/10 11:15:26;;;;;;;22.20;6.53;;;;;;;;;;5078195;28;20311;-85
2021/07/10 11:17:59;;;;;;;12.47;6.57;;;;;;;;;;5072373;28;20188;-81
2021/07/10 11:20:44;;;;;;;9.97;5.80;;;;;;;;;;5069218;28;20180;-81
2021/07/10 11:23:10;;;;;;;5.27;4.70;;;;;;;;;;5073198;28;20204;-84
2021/07/10 11:25:58;;;;;;;8.27;5.87;;;;;;;;;;5072120;28;20192;-83
2021/07/10 11:28:28;;;;;;;4.73;4.33;;;;;;;;;;5100487;28;20176;-83
2021/07/10 11:31:02;;;;;;;7.07;4.50;;;;;;;;;;5073324;28;20185;-84
2021/07/10 11:33:47;;;;;;;16.83;5.10;;;;;;;;;;5072584;28;20769;-84
2021/07/10 11:36:34;;;;;;;5.63;4.90;;;;;;;;;;5073735;28;20420;-83
2021/07/10 11:39:01;;;;;;;5.50;4.23;;;;;;;;;;5083687;28;20170;-81
2021/07/10 11:41:31;;;;;;;4.80;4.40;;;;;;;;;;5071871;28;20219;-81
2021/07/10 11:44:14;;;;;;;9.13;6.47;;;;;;;;;;5075058;28;20181;-81
2021/07/10 11:46:59;;;;;;;6.67;4.90;;;;;;;;;;5071225;28;20185;-80
2021/07/10 11:49:41;;;;;;;5.97;5.23;;;;;;;;;;5071563;28;20184;-81
2021/07/10 11:52:08;;;;;;;5.27;4.73;;;;;;;;;;5074315;28;20283;-82
2021/07/10 11:54:35;;;;;;;7.17;4.70;;;;;;;;;;5076223;28;20587;-81
2021/07/10 11:57:01;;;;;;;5.30;4.83;;;;;;;;;;5057529;28;20621;-82
2021/07/10 11:59:27;;;;;;;5.33;4.47;;;;;;;;;;5073246;28;20177;-83
2021/07/10 12:01:53;;;;;;;6.10;5.33;;;;;;;;;;5071082;28;20285;-82
2021/07/10 12:04:19;;;;;;;5.33;4.60;;;;;;;;;;5071691;28;20100;-83
2021/07/10 12:06:45;;;;;;;6.60;4.80;;;;;;;;;;5067739;28;20252;-82
2021/07/10 12:09:11;;;;;;;5.17;4.40;;;;;;;;;;5068867;28;20560;-83
2021/07/10 12:11:37;;;;;;;7.50;5.63;;;;;;;;;;5089264;28;20184;-83
2021/07/10 12:14:07;;;;;;;5.90;4.73;;;;;;;;;;5084912;28;20304;-83
2021/07/10 12:16:33;;;;;;;5.60;5.00;;;;;;;;;;5077326;28;20245;-84
2021/07/10 12:18:59;;;;;;;5.80;4.67;;;;;;;;;;5074405;28;20652;-83
2021/07/10 12:21:26;;;;;;;5.00;4.40;;;;;;;;;;5071150;28;20192;-83
2021/07/10 12:23:58;;;;;;;6.23;4.60;;;;;;;;;;5074306;28;20327;-83
2021/07/10 12:26:26;;;;;;;4.93;4.50;;;;;;;;;;5055833;28;20170;-82
2021/07/10 12:28:54;;;;;;;6.43;5.20;;;;;;;;;;5070879;28;20284;-82
2021/07/10 12:31:22;;;;;;;6.57;4.87;;;;;;;;;;5066678;28;20254;-84
2021/07/10 12:33:50;;;;;;;8.07;4.87;;;;;;;;;;5053697;28;20320;-82
2021/07/10 12:36:26;;;;;;;8.27;5.20;;;;;;;;;;5064984;28;20176;-82
2021/07/10 12:38:57;;;;;;;5.00;4.50;;;;;;;;;;5067795;28;20187;-82
2021/07/10 12:41:26;;;;;;;5.07;4.50;;;;;;;;;;5071238;28;20173;-83
2021/07/10 12:43:52;;;;;;;6.53;4.37;;;;;;;;;;5058895;28;20264;-85
2021/07/10 12:46:19;;;;;;;5.53;4.50;;;;;;;;;;5075775;28;20605;-85
2021/07/10 12:48:45;;;;;;;5.70;4.87;;;;;;;;;;5066353;28;20631;-83
2021/07/10 12:51:12;;;;;;;5.60;5.10;;;;;;;;;;5068986;28;20631;-83
2021/07/10 12:53:39;;;;;;;7.87;5.70;;;;;;;;;;5070047;28;20715;-83
2021/07/10 12:56:12;;;;;;;7.40;4.93;;;;;;;;;;5065331;28;20545;-83
2021/07/10 12:58:39;;;;;;;6.53;5.43;;;;;;;;;;5066248;28;20265;-83
2021/07/10 13:01:06;;;;;;;8.40;6.03;;;;;;;;;;5062099;28;20177;-85
2021/07/10 13:03:32;;;;;;;6.90;5.30;;;;;;;;;;5071987;28;20233;-85
2021/07/10 13:06:02;;;;;;;6.03;5.40;;;;;;;;;;5068403;28;20184;-86
2021/07/10 13:08:29;;;;;;;6.67;5.77;;;;;;;;;;5064712;28;20173;-86
2021/07/10 13:11:01;;;;;;;6.33;5.30;;;;;;;;;;5062445;28;20184;-83
2021/07/10 13:13:28;;;;;;;6.17;5.47;;;;;;;;;;5064446;28;20252;-84
2021/07/10 13:15:56;;;;;;;5.40;4.90;;;;;;;;;;5094955;28;20222;-84
2021/07/10 13:18:26;;;;;;;6.17;5.47;;;;;;;;;;5062419;28;20551;-82
2021/07/10 13:20:53;;;;;;;7.37;5.73;;;;;;;;;;5067229;28;20671;-84
2021/07/10 13:23:46;;;;;;;7.40;5.33;;;;;;;;;;5069812;28;20203;-83
2021/07/10 13:26:18;;;;;;;6.40;5.07;;;;;;;;;;5061659;28;20564;-84
2021/07/10 13:28:47;;;;;;;7.07;4.80;;;;;;;;;;5055972;28;20180;-85
2021/07/10 13:31:16;;;;;;;6.77;5.27;;;;;;;;;;5070375;28;20199;-85
2021/07/10 13:33:43;;;;;;;6.53;5.20;;;;;;;;;;5069768;28;20180;-85
2021/07/10 13:36:20;;;;;;;6.60;5.60;;;;;;;;;;5060893;28;20185;-83
2021/07/10 13:38:48;;;;;;;5.80;5.17;;;;;;;;;;5068652;28;20537;-83
2021/07/10 13:41:17;;;;;;;7.53;5.17;;;;;;;;;;5067182;28;20528;-85
2021/07/10 13:43:58;;;;;;;5.77;5.23;;;;;;;;;;5070035;28;20191;-85
2021/07/10 13:46:32;;;;;;;7.53;5.00;;;;;;;;;;5063635;28;20172;-83
2021/07/10 13:48:58;;;;;;;5.43;4.60;;;;;;;;;;5062863;28;20188;-83
2021/07/10 13:51:25;;;;;;;5.60;4.87;;;;;;;;;;5092037;28;20664;-83
2021/07/10 13:53:52;;;;;;;6.47;5.10;;;;;;;;;;5056985;28;20217;-83
2021/07/10 13:56:20;;;;;;;7.17;5.37;;;;;;;;;;5069608;28;20303;-84
2021/07/10 13:58:59;;;;;;;5.53;5.03;;;;;;;;;;5055975;28;20176;-84
2021/07/10 14:01:25;;;;;;;6.73;5.03;;;;;;;;;;5066582;28;20235;-84
2021/07/10 14:03:51;;;;;;;7.93;5.53;;;;;;;;;;5057173;28;20340;-84
2021/07/10 14:06:17;;;;;;;6.00;5.40;;;;;;;;;;5088894;28;20131;-84
2021/07/10 14:08:43;;;;;;;7.03;5.50;;;;;;;;;;5060416;28;20179;-84
2021/07/10 14:11:09;;;;;;;5.47;4.97;;;;;;;;;;5066365;28;20181;-84
2021/07/10 14:13:38;;;;;;;6.40;5.80;;;;;;;;;;5054803;28;20417;-86
2021/07/10 14:16:04;;;;;;;6.27;5.17;;;;;;;;;;5059504;28;20646;-85
2021/07/10 14:18:30;;;;;;;6.53;5.83;;;;;;;;;;5069199;28;20186;-85
2021/07/10 14:20:56;;;;;;;6.20;5.60;;;;;;;;;;5066856;28;20191;-84
2021/07/10 14:23:23;;;;;;;9.40;5.83;;;;;;;;;;5070138;28;20177;-81
2021/07/10 14:25:50;;;;;;;6.00;5.40;;;;;;;;;;5058213;28;20175;-81
2021/07/10 14:28:16;;;;;;;7.33;6.27;;;;;;;;;;5101045;28;20177;-84
2021/07/10 14:30:43;;;;;;;6.87;5.77;;;;;;;;;;5064432;28;20199;-82
2021/07/10 14:33:09;;;;;;;6.33;5.77;;;;;;;;;;5067286;28;20543;-81
2021/07/10 14:35:35;;;;;;;6.43;5.83;;;;;;;;;;5066345;28;20197;-84
2021/07/10 14:38:01;;;;;;;;;;;;;;;;;;5066726;28;20180;-83
2021/07/10 14:40:29;;;;;;;9.80;5.50;;;;;;;;;;5063723;28;20540;-84
2021/07/10 14:42:56;;;;;;;5.83;5.20;;;;;;;;;;5062900;28;20342;-81